Time;durP1;ratioP1;P1;durP2;ratioP2;P2;SDS_P1;SDS_P2;PMS_P1;PMS_P2;Temp;Humidity;BMP_temperature;BMP_pressure;BME280_temperature;BME280_humidity;BME280_pressure;Samples;Min_cycle;Max_cycle;Signal;HPM_P1;HPM_P2
2023/01/06 00:03:08;;;;;;;9.23;2.37;;;10.50;99.90;;;;;;7294102;32;20135;-60
2023/01/06 00:07:09;;;;;;;8.65;2.40;;;10.50;99.90;;;;;;7292008;32;20135;-60
2023/01/06 00:11:13;;;;;;;6.25;2.60;;;10.40;99.90;;;;;;7293208;32;20107;-60
2023/01/06 00:15:16;;;;;;;4.68;1.80;;;10.40;99.90;;;;;;7295159;32;20265;-60
2023/01/06 00:19:18;;;;;;;7.50;1.40;;;10.30;99.90;;;;;;7296762;32;20134;-60
2023/01/06 00:23:19;;;;;;;6.68;1.30;;;10.40;99.90;;;;;;7283288;32;20200;-61
2023/01/06 00:27:21;;;;;;;6.07;1.20;;;10.40;99.90;;;;;;7293850;32;20261;-60
2023/01/06 00:31:23;;;;;;;5.90;1.10;;;10.50;99.90;;;;;;7293845;32;20120;-60
2023/01/06 00:35:24;;;;;;;7.82;1.25;;;10.40;99.90;;;;;;7293013;32;20661;-59
2023/01/06 00:39:26;;;;;;;6.30;1.50;;;10.50;99.90;;;;;;7293335;32;20713;-60
2023/01/06 00:43:28;;;;;;;4.72;1.62;;;10.30;99.90;;;;;;7294407;32;20130;-61
2023/01/06 00:47:29;;;;;;;8.18;1.42;;;10.30;99.90;;;;;;7297434;32;20284;-60
2023/01/06 00:51:32;;;;;;;5.57;1.25;;;10.40;99.90;;;;;;7297562;32;20671;-59
2023/01/06 00:55:33;;;;;;;3.47;0.95;;;10.50;99.90;;;;;;7295704;32;20186;-59
2023/01/06 00:59:35;;;;;;;5.57;1.00;;;10.50;99.90;;;;;;7296832;32;20122;-60
2023/01/06 01:03:38;;;;;;;3.85;1.02;;;10.40;99.90;;;;;;7295207;32;20481;-61
2023/01/06 01:07:40;;;;;;;6.43;1.17;;;10.50;99.90;;;;;;7298423;32;20491;-60
2023/01/06 01:16:06;;;;;;;4.78;0.93;;;10.40;99.90;;;;;;7297787;32;20108;-60
2023/01/06 01:20:09;;;;;;;4.53;1.33;;;10.40;99.90;;;;;;7297664;32;20258;-60
2023/01/06 01:24:10;;;;;;;6.90;1.55;;;10.30;99.90;;;;;;7283301;32;20189;-59
2023/01/06 01:28:12;;;;;;;5.12;1.20;;;10.40;99.90;;;;;;7295087;32;20111;-60
2023/01/06 01:32:14;;;;;;;6.12;1.20;;;10.40;99.90;;;;;;7294351;32;20202;-60
2023/01/06 01:36:17;;;;;;;2.78;1.20;;;10.30;99.90;;;;;;7282094;32;20112;-60
2023/01/06 01:40:19;;;;;;;4.18;1.00;;;10.30;99.90;;;;;;7296834;32;20509;-59
2023/01/06 01:44:48;;;;;;;2.30;1.30;;;10.30;99.90;;;;;;7293749;32;20539;-59
2023/01/06 01:48:53;;;;;;;3.87;1.35;;;10.30;99.90;;;;;;7282394;32;20138;-61
2023/01/06 01:53:08;;;;;;;4.37;1.30;;;10.30;99.90;;;;;;7295542;32;20151;-60
2023/01/06 01:57:28;;;;;;;6.35;1.58;;;10.30;99.90;;;;;;7282431;32;20134;-59
2023/01/06 02:01:31;;;;;;;5.00;1.60;;;10.20;99.90;;;;;;7297477;32;20171;-59
2023/01/06 02:05:36;;;;;;;6.32;1.12;;;10.30;99.90;;;;;;7297350;32;20687;-59
2023/01/06 02:09:40;;;;;;;7.87;1.23;;;10.30;99.90;;;;;;7292933;32;20124;-59
2023/01/06 02:13:46;;;;;;;3.47;1.25;;;10.30;99.90;;;;;;7295585;32;20450;-60
2023/01/06 02:18:03;;;;;;;2.67;1.05;;;10.40;99.90;;;;;;7292643;32;20183;-60
2023/01/06 02:22:08;;;;;;;;;;;10.30;99.90;;;;;;7296527;32;20263;-59
2023/01/06 02:26:40;;;;;;;3.30;0.98;;;10.30;99.90;;;;;;7296374;32;20204;-60
2023/01/06 02:31:35;;;;;;;8.38;1.27;;;10.30;99.90;;;;;;7298182;32;20127;-60
2023/01/06 02:35:48;;;;;;;3.47;1.00;;;10.30;99.90;;;;;;7301525;32;20155;-60
2023/01/06 02:40:11;;;;;;;5.28;1.20;;;10.20;99.90;;;;;;7300972;32;20246;-59
2023/01/06 02:44:28;;;;;;;3.75;1.05;;;10.20;99.90;;;;;;7301053;32;20138;-59
2023/01/06 02:48:47;;;;;;;3.07;1.30;;;10.20;99.90;;;;;;7296829;32;20116;-58
2023/01/06 02:52:56;;;;;;;4.57;1.10;;;10.40;99.90;;;;;;7299948;32;20406;-60
2023/01/06 02:57:24;;;;;;;6.28;1.40;;;10.30;99.90;;;;;;7300393;32;20103;-59
2023/01/06 03:01:35;;;;;;;2.83;0.93;;;10.40;99.90;;;;;;7298940;32;20187;-59
2023/01/06 03:05:38;;;;;;;2.90;0.90;;;10.30;99.90;;;;;;7296663;32;20714;-60
2023/01/06 03:09:40;;;;;;;5.97;1.10;;;10.30;99.90;;;;;;7298440;32;20167;-59
2023/01/06 03:14:18;;;;;;;3.28;0.70;;;10.30;99.90;;;;;;7299557;32;20251;-59
2023/01/06 03:18:20;;;;;;;6.90;1.20;;;10.40;99.90;;;;;;7300903;32;20725;-59
2023/01/06 03:22:23;;;;;;;3.83;0.62;;;10.40;99.90;;;;;;7298179;32;20108;-60
2023/01/06 03:26:26;;;;;;;5.82;0.90;;;10.30;99.90;;;;;;7297013;32;20202;-59
2023/01/06 03:30:41;;;;;;;5.53;0.90;;;10.40;99.90;;;;;;7299125;32;20254;-60
2023/01/06 03:35:09;;;;;;;2.47;0.73;;;10.40;99.90;;;;;;7288334;32;20270;-59
2023/01/06 03:39:16;;;;;;;4.55;0.82;;;10.50;99.90;;;;;;7299936;32;20112;-59
2023/01/06 03:43:29;;;;;;;5.85;0.70;;;10.50;99.90;;;;;;7292796;32;20189;-59
2023/01/06 03:47:50;;;;;;;5.32;1.05;;;10.50;99.90;;;;;;7296331;32;20534;-60
2023/01/06 03:52:25;;;;;;;3.35;0.75;;;10.50;99.90;;;;;;7294808;32;20108;-59
2023/01/06 03:56:42;;;;;;;3.28;0.50;;;10.50;99.90;;;;;;7283689;32;20579;-60
2023/01/06 04:00:45;;;;;;;;;;;10.50;99.90;;;;;;7296199;32;20254;-59
2023/01/06 04:05:12;;;;;;;3.10;0.62;;;10.50;99.90;;;;;;7298049;32;20023;-60
2023/01/06 04:09:14;;;;;;;4.15;0.75;;;10.50;99.90;;;;;;7301575;32;20190;-59
2023/01/06 04:13:16;;;;;;;3.25;0.60;;;10.50;99.90;;;;;;7299102;32;20100;-59
2023/01/06 04:17:17;;;;;;;6.22;1.00;;;10.60;99.90;;;;;;7297481;32;20104;-59
2023/01/06 04:21:19;;;;;;;3.15;0.75;;;10.50;99.90;;;;;;7298374;32;20680;-59
2023/01/06 04:25:22;;;;;;;4.22;0.73;;;10.50;99.90;;;;;;7299393;32;20118;-59
2023/01/06 04:29:23;;;;;;;6.32;1.20;;;10.60;99.90;;;;;;7298769;32;20429;-60
2023/01/06 04:33:26;;;;;;;3.03;0.98;;;10.60;99.90;;;;;;7298523;32;20604;-59
2023/01/06 04:37:27;;;;;;;3.42;1.05;;;10.50;99.90;;;;;;7295490;32;20118;-59
2023/01/06 04:41:31;;;;;;;3.62;1.00;;;10.50;99.90;;;;;;7297723;32;20126;-60
2023/01/06 04:45:33;;;;;;;3.28;0.80;;;10.40;99.90;;;;;;7284709;32;20612;-59
2023/01/06 04:49:35;;;;;;;5.45;0.90;;;10.50;99.90;;;;;;7295837;32;20100;-59
2023/01/06 04:53:39;;;;;;;3.65;0.85;;;10.60;99.90;;;;;;7297279;32;20108;-60
2023/01/06 04:57:41;;;;;;;3.92;0.80;;;10.50;99.90;;;;;;7297470;32;20551;-60
2023/01/06 05:01:42;;;;;;;3.42;0.77;;;10.50;99.90;;;;;;7298499;32;20119;-59
2023/01/06 05:05:44;;;;;;;4.30;0.77;;;10.50;99.90;;;;;;7298960;32;20203;-60
2023/01/06 05:09:46;;;;;;;4.80;0.80;;;10.40;99.90;;;;;;7296789;32;20127;-60
2023/01/06 05:13:48;;;;;;;4.00;0.82;;;10.50;99.90;;;;;;7297108;32;20112;-59
2023/01/06 05:17:50;;;;;;;3.58;0.50;;;10.50;99.90;;;;;;7294614;32;20126;-59
2023/01/06 05:21:51;;;;;;;4.40;0.88;;;10.50;99.90;;;;;;7296834;32;20494;-59
2023/01/06 05:25:53;;;;;;;3.78;0.70;;;10.50;99.90;;;;;;7299186;32;20104;-60
2023/01/06 05:29:55;;;;;;;3.50;0.98;;;10.50;99.90;;;;;;7296981;32;20096;-59
2023/01/06 05:33:57;;;;;;;4.35;0.73;;;10.50;99.90;;;;;;7297802;32;20114;-60
2023/01/06 05:37:59;;;;;;;3.45;0.70;;;10.50;99.90;;;;;;7294931;32;20118;-59
2023/01/06 05:42:00;;;;;;;2.78;0.88;;;10.50;99.90;;;;;;7297725;32;20106;-59
2023/01/06 05:46:10;;;;;;;3.75;0.70;;;10.60;99.90;;;;;;7297058;32;20542;-60
2023/01/06 05:50:12;;;;;;;3.72;0.80;;;10.50;99.90;;;;;;7299491;32;20140;-59
2023/01/06 05:54:13;;;;;;;3.33;0.68;;;10.50;99.90;;;;;;7296768;32;20434;-59
2023/01/06 05:58:15;;;;;;;3.90;0.60;;;10.50;99.90;;;;;;7283745;32;20321;-59
2023/01/06 06:02:17;;;;;;;3.17;0.60;;;10.50;99.90;;;;;;7292325;32;20170;-60
2023/01/06 06:06:20;;;;;;;2.08;0.60;;;10.60;99.90;;;;;;7289536;32;20585;-58
2023/01/06 06:10:22;;;;;;;2.83;0.57;;;10.60;99.90;;;;;;7294707;32;20626;-61
2023/01/06 06:14:25;;;;;;;2.50;0.80;;;10.60;99.90;;;;;;7297175;32;20107;-58
2023/01/06 06:18:27;;;;;;;2.45;0.43;;;10.60;99.90;;;;;;7299785;32;20100;-58
2023/01/06 06:22:28;;;;;;;2.05;0.60;;;10.50;99.90;;;;;;7299904;32;20127;-59
2023/01/06 06:26:30;;;;;;;3.37;0.45;;;10.50;99.90;;;;;;7290089;32;20112;-59
2023/01/06 06:30:32;;;;;;;4.10;0.60;;;10.50;99.90;;;;;;7280448;32;20116;-59
2023/01/06 06:34:34;;;;;;;4.53;0.80;;;10.50;99.90;;;;;;7294395;32;20104;-58
2023/01/06 06:38:35;;;;;;;1.90;0.50;;;10.50;99.90;;;;;;7296174;32;20342;-58
2023/01/06 06:42:37;;;;;;;1.08;0.40;;;10.50;99.90;;;;;;7290323;32;20097;-60
2023/01/06 06:46:39;;;;;;;2.70;0.50;;;10.50;99.90;;;;;;7293116;32;20235;-60
2023/01/06 06:50:41;;;;;;;3.78;0.50;;;10.50;99.90;;;;;;7294811;32;20509;-59
2023/01/06 06:54:42;;;;;;;2.80;0.60;;;10.50;99.90;;;;;;7295442;32;20318;-61
2023/01/06 06:58:45;;;;;;;1.35;0.40;;;10.50;99.90;;;;;;7295922;32;20258;-59
2023/01/06 07:02:48;;;;;;;2.90;0.65;;;10.50;99.90;;;;;;7293365;32;20124;-59
2023/01/06 07:06:49;;;;;;;1.95;0.52;;;10.50;99.90;;;;;;7295870;32;20649;-59
2023/01/06 07:10:51;;;;;;;3.28;0.50;;;10.50;99.90;;;;;;7296220;32;20536;-59
2023/01/06 07:14:53;;;;;;;3.92;0.45;;;10.50;99.90;;;;;;7296275;32;20125;-60
2023/01/06 07:18:54;;;;;;;1.60;0.47;;;10.50;99.90;;;;;;7292796;32;20120;-60
2023/01/06 07:22:56;;;;;;;2.10;0.50;;;10.60;99.90;;;;;;7291877;32;20254;-59
2023/01/06 07:26:58;;;;;;;4.32;0.40;;;10.60;99.90;;;;;;7290898;32;20225;-60
2023/01/06 07:31:00;;;;;;;2.65;0.37;;;10.60;99.90;;;;;;7288330;32;20245;-60
2023/01/06 07:35:02;;;;;;;0.90;0.40;;;10.60;99.90;;;;;;7288909;32;20151;-61
2023/01/06 07:39:04;;;;;;;0.52;0.28;;;10.60;99.90;;;;;;7289793;32;20128;-61
2023/01/06 07:43:08;;;;;;;1.08;0.40;;;10.60;99.90;;;;;;7294577;32;20556;-61
2023/01/06 07:47:10;;;;;;;1.92;0.35;;;10.60;99.90;;;;;;7291340;32;20104;-61
2023/01/06 07:51:12;;;;;;;1.75;0.52;;;10.60;99.90;;;;;;7297505;32;20099;-61
2023/01/06 07:55:14;;;;;;;2.50;0.50;;;10.60;99.90;;;;;;7298275;32;20099;-61
2023/01/06 07:59:15;;;;;;;1.08;0.40;;;10.60;99.90;;;;;;7299909;32;20207;-61
2023/01/06 08:03:17;;;;;;;2.72;0.50;;;10.60;99.90;;;;;;7299879;32;20220;-63
2023/01/06 08:07:19;;;;;;;3.17;0.73;;;10.60;99.90;;;;;;7296440;32;20528;-61
2023/01/06 08:11:20;;;;;;;2.47;0.37;;;10.70;99.90;;;;;;7293184;32;20111;-61
2023/01/06 08:15:22;;;;;;;0.88;0.40;;;10.70;99.90;;;;;;7290236;32;20151;-63
2023/01/06 08:19:24;;;;;;;0.77;0.35;;;10.70;99.90;;;;;;7296299;32;20529;-61
2023/01/06 08:23:25;;;;;;;2.83;0.40;;;10.70;99.90;;;;;;7299193;32;20183;-61
2023/01/06 08:27:27;;;;;;;2.10;0.40;;;10.80;99.90;;;;;;7293732;32;20567;-62
2023/01/06 08:31:29;;;;;;;0.90;0.40;;;10.80;99.90;;;;;;7280069;32;20096;-61
2023/01/06 08:35:31;;;;;;;1.25;0.30;;;10.80;99.90;;;;;;7290531;32;20276;-61
2023/01/06 08:39:32;;;;;;;1.17;0.50;;;10.70;99.90;;;;;;7287990;32;20150;-62
2023/01/06 08:43:35;;;;;;;3.92;0.50;;;10.70;99.90;;;;;;7290376;32;20280;-61
2023/01/06 08:47:36;;;;;;;1.73;0.40;;;10.70;99.90;;;;;;7286293;32;20220;-62
2023/01/06 08:51:38;;;;;;;4.28;0.77;;;10.70;99.90;;;;;;7288479;32;20100;-62
2023/01/06 08:55:41;;;;;;;1.30;0.32;;;10.70;99.90;;;;;;7292951;32;20112;-62
2023/01/06 08:59:42;;;;;;;1.08;0.47;;;10.80;99.90;;;;;;7289657;32;20134;-62
2023/01/06 09:03:44;;;;;;;1.25;0.40;;;10.70;99.90;;;;;;7292620;32;20170;-61
2023/01/06 09:07:46;;;;;;;2.00;0.50;;;10.70;99.90;;;;;;7273520;32;20213;-63
2023/01/06 09:11:47;;;;;;;2.10;0.50;;;10.70;99.90;;;;;;7293301;32;20212;-63
2023/01/06 09:15:51;;;;;;;2.85;0.35;;;10.70;99.90;;;;;;7294476;32;20112;-61
2023/01/06 09:19:53;;;;;;;0.98;0.43;;;10.50;99.90;;;;;;7291991;32;20286;-62
2023/01/06 09:23:54;;;;;;;2.05;0.60;;;10.50;99.90;;;;;;7294474;32;20406;-62
2023/01/06 09:27:57;;;;;;;1.48;0.52;;;10.50;99.90;;;;;;7293141;32;20332;-62
2023/01/06 09:31:59;;;;;;;2.45;0.62;;;10.60;99.90;;;;;;7291870;32;20173;-60
2023/01/06 09:36:01;;;;;;;1.92;0.50;;;10.50;99.90;;;;;;7292893;32;20126;-61
2023/01/06 09:40:03;;;;;;;2.95;0.50;;;10.50;99.90;;;;;;7292242;32;20151;-62
2023/01/06 09:44:09;;;;;;;1.23;0.35;;;10.60;99.90;;;;;;7283081;32;20289;-61
2023/01/06 09:48:16;;;;;;;1.02;0.60;;;10.50;99.90;;;;;;7292893;32;20403;-61
2023/01/06 09:52:24;;;;;;;1.05;0.43;;;10.60;99.90;;;;;;7296302;32;20131;-60
2023/01/06 09:56:26;;;;;;;0.93;0.65;;;10.50;99.90;;;;;;7293513;32;20190;-60
2023/01/06 10:00:46;;;;;;;1.62;0.60;;;10.50;99.90;;;;;;7290750;32;20446;-59
2023/01/06 10:04:48;;;;;;;1.45;0.60;;;10.60;99.90;;;;;;7298395;32;20211;-60
2023/01/06 10:09:17;;;;;;;3.53;1.23;;;10.50;99.90;;;;;;7292900;32;20109;-59
2023/01/06 10:13:52;;;;;;;1.62;0.68;;;10.50;99.90;;;;;;7289951;32;20198;-59
2023/01/06 10:18:08;;;;;;;2.92;0.60;;;10.50;99.90;;;;;;7292608;32;20104;-60
2023/01/06 10:22:17;;;;;;;0.75;0.40;;;10.50;99.90;;;;;;7288689;32;20155;-60
2023/01/06 10:26:29;;;;;;;1.05;0.60;;;10.50;99.90;;;;;;7291728;32;20229;-59
2023/01/06 10:30:39;;;;;;;0.80;0.50;;;10.60;99.90;;;;;;7293473;32;20516;-59
2023/01/06 10:34:49;;;;;;;2.08;0.60;;;10.60;99.90;;;;;;7292138;32;20156;-59
2023/01/06 10:38:52;;;;;;;2.10;0.52;;;10.70;99.90;;;;;;7285157;32;20261;-62
2023/01/06 10:43:05;;;;;;;2.03;0.52;;;10.80;99.90;;;;;;7288201;32;20104;-60
2023/01/06 10:47:13;;;;;;;2.15;0.65;;;10.80;99.90;;;;;;7284511;32;20322;-61
2023/01/06 10:51:41;;;;;;;1.00;0.50;;;10.80;99.90;;;;;;7286165;32;20108;-61
2023/01/06 10:55:53;;;;;;;1.90;0.73;;;10.90;99.90;;;;;;7298836;32;20227;-61
2023/01/06 11:00:16;;;;;;;0.75;0.68;;;10.90;99.90;;;;;;7297116;32;20180;-60
2023/01/06 11:04:18;;;;;;;1.17;0.62;;;10.80;99.90;;;;;;7285591;32;20163;-61
2023/01/06 11:08:21;;;;;;;2.00;0.80;;;10.90;99.90;;;;;;7300922;32;20131;-61
2023/01/06 11:12:27;;;;;;;2.15;0.98;;;11.00;99.90;;;;;;7299766;32;20834;-60
2023/01/06 11:16:35;;;;;;;1.55;0.75;;;10.90;99.90;;;;;;7301148;32;20120;-61
2023/01/06 11:20:37;;;;;;;1.20;0.82;;;11.10;99.90;;;;;;7300394;32;20096;-61
2023/01/06 11:24:50;;;;;;;1.75;1.00;;;11.00;99.90;;;;;;7300846;32;20154;-60
2023/01/06 11:28:54;;;;;;;2.95;1.30;;;11.20;99.90;;;;;;7295021;32;20128;-61
2023/01/06 11:32:56;;;;;;;3.53;0.95;;;11.20;99.90;;;;;;7299947;32;20171;-61
2023/01/06 11:36:58;;;;;;;1.62;0.93;;;11.30;99.90;;;;;;7297421;32;20092;-62
2023/01/06 11:41:08;;;;;;;3.33;0.98;;;11.30;99.90;;;;;;7283846;32;20190;-62
2023/01/06 11:45:33;;;;;;;1.35;0.75;;;11.40;99.90;;;;;;7295643;32;20164;-61
2023/01/06 11:49:56;;;;;;;1.77;0.80;;;11.50;99.90;;;;;;7288151;32;20228;-61
2023/01/06 11:54:00;;;;;;;1.05;0.80;;;11.50;99.90;;;;;;7298082;32;20173;-62
2023/01/06 11:58:04;;;;;;;2.62;1.10;;;11.50;99.90;;;;;;7298950;32;20099;-61
2023/01/06 12:02:16;;;;;;;3.15;0.65;;;11.70;99.90;;;;;;7298397;32;20449;-61
2023/01/06 12:06:29;;;;;;;1.62;0.73;;;11.80;99.90;;;;;;7293480;32;20118;-60
2023/01/06 12:10:35;;;;;;;5.35;0.88;;;11.80;99.90;;;;;;7295559;32;20138;-60
2023/01/06 12:14:38;;;;;;;1.20;0.60;;;11.90;99.90;;;;;;7278000;32;20220;-60
2023/01/06 12:18:41;;;;;;;1.70;0.70;;;11.90;99.90;;;;;;7293283;32;20183;-62
2023/01/06 12:22:52;;;;;;;1.55;0.60;;;11.90;99.90;;;;;;7291198;32;20239;-62
2023/01/06 12:26:54;;;;;;;2.72;0.90;;;11.80;99.90;;;;;;7291537;32;20715;-61
2023/01/06 12:31:04;;;;;;;2.65;0.80;;;11.90;99.90;;;;;;7284580;32;20682;-61
2023/01/06 12:35:15;;;;;;;3.65;0.70;;;11.90;99.90;;;;;;7288607;32;20667;-61
2023/01/06 12:39:59;;;;;;;0.90;0.70;;;11.90;99.90;;;;;;7292688;32;20115;-62
2023/01/06 12:44:37;;;;;;;3.12;0.60;;;12.10;99.90;;;;;;7288096;32;20119;-61
2023/01/06 12:49:07;;;;;;;1.45;0.60;;;12.20;99.90;;;;;;7289428;32;20165;-62
2023/01/06 12:53:34;;;;;;;1.10;0.52;;;12.20;99.90;;;;;;7290297;32;20486;-62
2023/01/06 12:58:08;;;;;;;3.80;0.80;;;12.10;99.90;;;;;;7290630;32;20122;-61
2023/01/06 13:02:46;;;;;;;2.72;0.70;;;12.00;99.90;;;;;;7290295;32;20244;-61
2023/01/06 13:07:18;;;;;;;1.40;0.47;;;11.90;99.90;;;;;;7286297;32;20824;-62
2023/01/06 13:11:38;;;;;;;1.27;0.50;;;12.00;99.90;;;;;;7295163;32;20136;-62
2023/01/06 13:15:43;;;;;;;1.45;0.60;;;12.10;99.90;;;;;;7291263;32;20122;-62
2023/01/06 13:19:55;;;;;;;1.67;0.52;;;12.00;99.90;;;;;;7294905;32;20245;-62
2023/01/06 13:24:05;;;;;;;1.67;0.43;;;12.00;99.90;;;;;;7290880;32;20553;-62
2023/01/06 13:28:12;;;;;;;1.30;0.43;;;11.90;99.90;;;;;;7291196;32;20111;-63
2023/01/06 13:32:26;;;;;;;1.67;0.60;;;11.90;99.90;;;;;;7284345;32;20096;-62
2023/01/06 13:37:08;;;;;;;2.53;0.60;;;11.80;99.90;;;;;;7295163;32;20210;-62
2023/01/06 13:41:15;;;;;;;1.05;0.80;;;11.70;99.90;;;;;;7288741;32;20119;-62
2023/01/06 13:45:21;;;;;;;;;;;11.60;99.90;;;;;;7294941;32;20626;-62
2023/01/06 13:49:23;;;;;;;1.75;1.12;;;11.60;99.90;;;;;;7292803;32;20007;-64
2023/01/06 13:53:26;;;;;;;1.30;0.90;;;11.50;99.90;;;;;;7294839;32;20119;-63
2023/01/06 13:57:36;;;;;;;2.83;1.05;;;11.50;99.90;;;;;;7296673;32;20202;-62
2023/01/06 14:01:37;;;;;;;1.05;0.70;;;11.60;99.90;;;;;;7288422;32;20840;-64
2023/01/06 14:05:39;;;;;;;2.50;0.90;;;11.60;99.90;;;;;;7296940;32;20182;-64
2023/01/06 14:09:49;;;;;;;1.27;0.90;;;11.50;99.90;;;;;;7296941;32;20144;-64
2023/01/06 14:13:55;;;;;;;1.70;0.90;;;11.50;99.90;;;;;;7290985;32;20236;-63
2023/01/06 14:17:58;;;;;;;1.27;0.73;;;11.50;99.90;;;;;;7291433;32;20172;-63
2023/01/06 14:22:19;;;;;;;1.30;0.90;;;11.50;99.90;;;;;;7292283;32;20183;-63
2023/01/06 14:27:07;;;;;;;3.17;0.77;;;11.50;99.90;;;;;;7300729;32;20242;-63
2023/01/06 14:31:29;;;;;;;2.08;0.80;;;11.40;99.90;;;;;;7288529;32;20108;-63
2023/01/06 14:35:41;;;;;;;1.73;0.70;;;11.40;99.90;;;;;;7284341;32;20175;-63
2023/01/06 14:39:48;;;;;;;1.50;0.90;;;11.40;99.90;;;;;;7298285;32;20197;-63
2023/01/06 14:43:55;;;;;;;1.10;0.70;;;11.40;99.90;;;;;;7294988;32;20179;-63
2023/01/06 14:48:04;;;;;;;2.42;0.88;;;11.30;99.90;;;;;;7284789;32;20228;-63
2023/01/06 14:52:14;;;;;;;1.50;0.70;;;11.30;99.90;;;;;;7298350;32;20096;-64
2023/01/06 14:56:23;;;;;;;1.23;0.70;;;11.20;99.90;;;;;;7298056;32;20095;-63
2023/01/06 15:00:28;;;;;;;3.03;1.15;;;11.30;99.90;;;;;;7294981;32;20187;-63
2023/01/06 15:04:33;;;;;;;1.98;0.80;;;11.20;99.90;;;;;;7296777;32;20100;-62
2023/01/06 15:08:35;;;;;;;1.12;1.02;;;11.20;99.90;;;;;;7284122;32;20434;-62
2023/01/06 15:12:36;;;;;;;4.00;1.08;;;11.20;99.90;;;;;;7285767;32;20248;-63
2023/01/06 15:16:44;;;;;;;1.33;1.10;;;11.10;99.90;;;;;;7293859;32;20667;-60
2023/01/06 15:20:46;;;;;;;1.00;0.85;;;11.10;99.90;;;;;;7292643;32;20798;-62
2023/01/06 15:24:49;;;;;;;2.15;1.20;;;11.10;99.90;;;;;;7291453;32;20134;-59
2023/01/06 15:29:12;;;;;;;1.95;1.15;;;10.90;99.90;;;;;;7290293;32;20208;-60
2023/01/06 15:33:14;;;;;;;1.70;1.17;;;10.90;99.90;;;;;;7287085;32;20314;-62
2023/01/06 15:37:24;;;;;;;3.03;1.60;;;10.80;99.90;;;;;;7297059;32;20178;-63
2023/01/06 15:41:32;;;;;;;1.98;1.40;;;10.80;99.90;;;;;;7291218;32;20104;-62
2023/01/06 15:45:35;;;;;;;4.40;1.60;;;10.70;99.90;;;;;;7294269;32;20118;-60
2023/01/06 15:49:39;;;;;;;1.90;1.60;;;10.70;99.90;;;;;;7294788;32;20682;-61
2023/01/06 15:53:41;;;;;;;2.97;1.42;;;10.70;99.90;;;;;;7296593;32;20450;-60
2023/01/06 15:57:49;;;;;;;2.90;1.67;;;10.80;99.90;;;;;;7289561;32;20631;-60
2023/01/06 16:01:53;;;;;;;2.65;1.70;;;10.70;99.90;;;;;;7297665;32;20125;-61
2023/01/06 16:06:09;;;;;;;3.90;1.70;;;10.60;99.90;;;;;;7297804;32;20151;-60
2023/01/06 16:10:34;;;;;;;3.25;1.80;;;10.60;99.90;;;;;;7296448;32;20447;-61
2023/01/06 16:14:39;;;;;;;3.87;2.00;;;10.60;99.90;;;;;;7296268;32;20709;-61
2023/01/06 16:18:42;;;;;;;2.08;1.60;;;10.60;99.90;;;;;;7297444;32;20108;-62
2023/01/06 16:22:53;;;;;;;1.95;1.58;;;10.50;99.90;;;;;;7297605;32;20136;-60
2023/01/06 16:27:00;;;;;;;2.65;1.65;;;10.50;99.90;;;;;;7294305;32;20215;-61
2023/01/06 16:31:05;;;;;;;2.05;1.60;;;10.50;99.90;;;;;;7294682;32;20130;-59
2023/01/06 16:35:24;;;;;;;2.35;1.77;;;10.60;99.90;;;;;;7291758;32;20272;-59
2023/01/06 16:39:26;;;;;;;1.50;1.40;;;10.50;99.90;;;;;;7288446;32;20333;-60
2023/01/06 16:43:28;;;;;;;2.78;1.40;;;10.60;99.90;;;;;;7295639;32;20211;-61
2023/01/06 16:47:30;;;;;;;3.08;1.73;;;10.60;99.90;;;;;;7287648;32;20191;-59
2023/01/06 16:51:32;;;;;;;6.62;1.80;;;10.60;99.90;;;;;;7287946;32;20204;-59
2023/01/06 16:55:35;;;;;;;4.45;2.10;;;10.60;99.90;;;;;;7293028;32;20183;-59
2023/01/06 16:59:39;;;;;;;2.70;2.15;;;10.60;99.90;;;;;;7267886;32;20270;-59
2023/01/06 17:03:41;;;;;;;3.78;3.05;;;10.60;99.90;;;;;;7295116;32;20150;-58
2023/01/06 17:07:43;;;;;;;3.42;2.20;;;10.50;99.90;;;;;;7298828;32;20182;-59
2023/01/06 17:11:46;;;;;;;2.83;1.75;;;10.60;99.90;;;;;;7298178;32;20395;-59
2023/01/06 17:16:11;;;;;;;5.75;2.20;;;10.50;99.90;;;;;;7280641;32;20216;-59
2023/01/06 17:20:14;;;;;;;2.95;2.22;;;10.50;99.90;;;;;;7293752;32;20732;-59
2023/01/06 17:24:24;;;;;;;3.78;1.90;;;10.40;99.90;;;;;;7297460;32;20241;-59
2023/01/06 17:28:26;;;;;;;2.25;1.87;;;10.40;99.90;;;;;;7292292;32;20465;-59
2023/01/06 17:32:36;;;;;;;2.47;1.80;;;10.40;99.90;;;;;;7296670;32;20226;-59
2023/01/06 17:36:39;;;;;;;2.20;1.62;;;10.40;99.90;;;;;;7286709;32;20613;-61
2023/01/06 17:40:41;;;;;;;4.18;1.90;;;10.40;99.90;;;;;;7294322;32;20100;-59
2023/01/06 17:44:47;;;;;;;3.53;2.05;;;10.40;99.90;;;;;;7292584;32;20124;-59
2023/01/06 17:49:14;;;;;;;3.15;2.20;;;10.50;99.90;;;;;;7292294;32;20100;-60
2023/01/06 17:57:42;;;;;;;4.22;2.08;;;10.40;99.90;;;;;;7294159;32;20177;-59
2023/01/06 18:01:47;;;;;;;2.40;1.70;;;10.50;99.90;;;;;;7296127;32;20203;-61
2023/01/06 18:05:55;;;;;;;3.50;1.77;;;10.40;99.90;;;;;;7294721;32;20838;-61
2023/01/06 18:09:57;;;;;;;3.05;1.73;;;10.40;99.90;;;;;;7292012;32;20122;-59
2023/01/06 18:14:27;;;;;;;3.53;1.67;;;10.50;99.90;;;;;;7293631;32;20269;-59
2023/01/06 18:18:35;;;;;;;3.62;2.05;;;10.50;99.90;;;;;;7273560;32;20126;-60
2023/01/06 18:22:39;;;;;;;4.55;2.00;;;10.40;99.90;;;;;;7297481;32;20199;-61
2023/01/06 18:26:50;;;;;;;4.65;1.60;;;10.40;99.90;;;;;;7295478;32;20494;-60
2023/01/06 18:30:58;;;;;;;2.72;1.62;;;10.40;99.90;;;;;;7295992;32;20497;-60
2023/01/06 18:35:02;;;;;;;3.55;1.98;;;10.30;99.90;;;;;;7292718;32;20226;-59
2023/01/06 18:39:04;;;;;;;2.25;2.00;;;10.30;99.90;;;;;;7289689;32;20100;-58
2023/01/06 18:43:26;;;;;;;3.97;2.50;;;10.30;99.90;;;;;;7288821;32;20126;-59
2023/01/06 18:47:30;;;;;;;4.12;2.55;;;10.30;99.90;;;;;;7292704;32;20096;-59
2023/01/06 18:51:31;;;;;;;3.75;2.42;;;10.30;99.90;;;;;;7294871;32;21378;-59
2023/01/06 18:55:41;;;;;;;4.18;2.45;;;10.40;99.90;;;;;;7292264;32;20187;-59
2023/01/06 18:59:42;;;;;;;3.05;2.12;;;10.50;99.90;;;;;;7292053;32;20257;-58
2023/01/06 19:03:56;;;;;;;3.30;1.95;;;10.40;99.90;;;;;;7294736;32;20490;-59
2023/01/06 19:08:09;;;;;;;6.25;2.28;;;10.40;99.90;;;;;;7274336;32;20314;-61
2023/01/06 19:12:31;;;;;;;3.30;1.98;;;10.60;99.90;;;;;;7282504;32;20132;-60
2023/01/06 19:16:36;;;;;;;5.78;2.60;;;10.60;99.90;;;;;;7294468;32;20528;-60
2023/01/06 19:20:38;;;;;;;4.35;2.67;;;10.60;99.90;;;;;;7296956;32;20218;-61
2023/01/06 19:24:47;;;;;;;3.03;2.05;;;10.50;99.90;;;;;;7299272;32;20211;-60
2023/01/06 19:28:58;;;;;;;4.30;1.65;;;10.50;99.90;;;;;;7297016;32;20099;-61
2023/01/06 19:33:22;;;;;;;2.90;1.75;;;10.50;99.90;;;;;;7292013;32;20742;-60
2023/01/06 19:37:23;;;;;;;2.70;1.60;;;10.60;99.90;;;;;;7291550;32;20216;-61
2023/01/06 19:41:27;;;;;;;5.55;1.75;;;10.70;99.90;;;;;;7294352;32;20576;-63
2023/01/06 19:45:30;;;;;;;2.95;1.58;;;10.70;99.90;;;;;;7293558;32;20202;-61
2023/01/06 19:49:39;;;;;;;5.05;1.48;;;10.60;99.90;;;;;;7295095;32;21375;-61
2023/01/06 19:53:43;;;;;;;3.22;1.90;;;10.60;99.90;;;;;;7297907;32;20103;-60
2023/01/06 19:58:16;;;;;;;1.60;1.40;;;10.60;99.90;;;;;;7296081;32;20108;-61
2023/01/06 20:02:27;;;;;;;3.75;1.73;;;10.50;99.90;;;;;;7291715;32;20326;-61
2023/01/06 20:06:29;;;;;;;4.05;1.60;;;10.50;99.90;;;;;;7297568;32;20123;-62
2023/01/06 20:10:31;;;;;;;3.12;1.70;;;10.40;99.90;;;;;;7295503;32;20570;-61
2023/01/06 20:14:32;;;;;;;5.18;1.90;;;10.40;99.90;;;;;;7297626;32;20152;-60
2023/01/06 20:18:34;;;;;;;3.83;2.15;;;10.30;99.90;;;;;;7299403;32;20131;-61
2023/01/06 20:22:36;;;;;;;3.10;1.92;;;10.30;99.90;;;;;;7296932;32;20715;-61
2023/01/06 20:26:37;;;;;;;4.35;2.35;;;10.30;99.90;;;;;;7297723;32;20495;-59
2023/01/06 20:30:40;;;;;;;3.42;2.37;;;10.10;99.90;;;;;;7294311;32;20196;-59
2023/01/06 20:34:41;;;;;;;3.22;2.05;;;10.10;99.90;;;;;;7298742;32;20117;-60
2023/01/06 20:38:44;;;;;;;3.90;2.62;;;10.20;99.90;;;;;;7298057;32;20122;-61
2023/01/06 20:42:46;;;;;;;4.82;2.50;;;10.20;99.90;;;;;;7296748;32;20122;-61
2023/01/06 20:46:47;;;;;;;5.20;2.75;;;10.10;99.90;;;;;;7295346;32;20223;-61
2023/01/06 20:50:49;;;;;;;4.75;2.45;;;10.10;99.90;;;;;;7291966;32;20648;-60
2023/01/06 20:54:52;;;;;;;4.45;2.08;;;10.10;99.90;;;;;;7295415;32;20183;-60
2023/01/06 20:58:54;;;;;;;5.15;2.00;;;10.10;99.90;;;;;;7295137;32;20112;-60
2023/01/06 21:02:55;;;;;;;5.35;2.15;;;10.10;99.90;;;;;;7296806;32;20100;-60
2023/01/06 21:06:57;;;;;;;2.72;1.90;;;10.10;99.90;;;;;;7295863;32;20226;-60
2023/01/06 21:10:59;;;;;;;4.45;1.67;;;10.10;99.90;;;;;;7296324;32;20274;-62
2023/01/06 21:15:01;;;;;;;2.45;1.70;;;10.20;99.90;;;;;;7292293;32;20103;-59
2023/01/06 21:19:02;;;;;;;3.70;1.60;;;10.10;99.90;;;;;;7292589;32;20446;-60
2023/01/06 21:23:04;;;;;;;2.97;1.92;;;10.10;99.90;;;;;;7290954;32;20584;-60
2023/01/06 21:27:06;;;;;;;3.80;2.10;;;10.10;99.90;;;;;;7292340;32;20100;-60
2023/01/06 21:31:08;;;;;;;4.82;1.75;;;10.10;99.90;;;;;;7287946;32;20537;-61
2023/01/06 21:35:10;;;;;;;3.30;2.45;;;10.10;99.90;;;;;;7294529;32;20191;-61
2023/01/06 21:39:13;;;;;;;2.70;2.00;;;10.10;99.90;;;;;;7291004;32;20618;-58